Back to Top

Language: 

My Weather Underground Personal Weather Station Historical Data with Graphs...

Delerius Weather Station Historical Data
Daily Summary for April 3, 2017 Units:  Both    English   Metric
« Previous Day
Next Day »
Daily Weekly Monthly Yearly Custom
  High: Low: Average:
Temperature: 61.9 °F /  16.6 °C 36.9 °F /  2.7 °C 50.5 °F /  10.3 °C
Dew Point: 45.5 °F /  7.5 °C 34.9 °F /  1.6 °C 40.6 °F /  4.8 °C
Humidity: 95 % 46 % 71 %
Wind Speed: 16.0 mph /  25.7 km/h - 5.7 mph /  9.2 km/h
Wind Gust: 28.0 mph /  45.1 km/h - -
Wind:- - SSW
Pressure: 30.27 in /  1024.9 hPa 30.10 in /  1019.2 hPa -
Precipitation: 0.00 in /  0 mm    
Historical Graphs
 
 
Tabular Data for April 3, 2017
Time Temperature Dew Point Pressure Wind Wind Speed Wind Gust Humidity Rainfall Rate (Hourly) solar Conditions
00:03 42.6 °F /  5.9 °C 39.0 °F /  3.9 °C 30.27 in /  1024.9 hPa Calm     87 % 0.00 in /  0 mm 0 W/m2
00:08 42.4 °F /  5.8 °C 38.8 °F /  3.8 °C 30.27 in /  1024.9 hPa Calm     87 % 0.00 in /  0 mm 0 W/m2
00:13 42.4 °F /  5.8 °C 38.8 °F /  3.8 °C 30.27 in /  1024.9 hPa Calm     87 % 0.00 in /  0 mm 0 W/m2
00:18 42.3 °F /  5.7 °C 38.7 °F /  3.7 °C 30.27 in /  1024.9 hPa Calm   1.0 mph /  1.6 km/h 87 % 0.00 in /  0 mm 0 W/m2
00:23 42.1 °F /  5.6 °C 38.8 °F /  3.8 °C 30.27 in /  1024.9 hPa Calm   1.0 mph /  1.6 km/h 88 % 0.00 in /  0 mm 0 W/m2
00:28 42.1 °F /  5.6 °C 38.8 °F /  3.8 °C 30.27 in /  1024.9 hPa Calm     88 % 0.00 in /  0 mm 0 W/m2
00:33 41.7 °F /  5.4 °C 38.4 °F /  3.6 °C 30.27 in /  1024.9 hPa Calm     88 % 0.00 in /  0 mm 0 W/m2
00:38 41.5 °F /  5.3 °C 38.3 °F /  3.5 °C 30.27 in /  1024.9 hPa Calm     88 % 0.00 in /  0 mm 0 W/m2
00:43 41.4 °F /  5.2 °C 38.1 °F /  3.4 °C 30.27 in /  1024.9 hPa Calm     88 % 0.00 in /  0 mm 0 W/m2
00:49 41.2 °F /  5.1 °C 37.9 °F /  3.3 °C 30.27 in /  1024.9 hPa Calm     88 % 0.00 in /  0 mm 0 W/m2
00:54 40.8 °F /  4.9 °C 37.5 °F /  3.1 °C 30.27 in /  1024.9 hPa Calm     88 % 0.00 in /  0 mm 0 W/m2
00:59 40.6 °F /  4.8 °C 37.7 °F /  3.2 °C 30.27 in /  1024.9 hPa Calm     89 % 0.00 in /  0 mm 0 W/m2
01:04 40.6 °F /  4.8 °C 37.7 °F /  3.2 °C 30.27 in /  1024.9 hPa Calm     89 % 0.00 in /  0 mm 0 W/m2
01:09 40.5 °F /  4.7 °C 37.5 °F /  3.1 °C 30.27 in /  1024.9 hPa Calm     89 % 0.00 in /  0 mm 0 W/m2
01:14 40.3 °F /  4.6 °C 37.3 °F /  2.9 °C 30.27 in /  1024.9 hPa Calm     89 % 0.00 in /  0 mm 0 W/m2
01:19 40.1 °F /  4.5 °C 37.1 °F /  2.8 °C 30.27 in /  1024.9 hPa Calm     89 % 0.00 in /  0 mm 0 W/m2
01:24 39.9 °F /  4.4 °C 37.2 °F /  2.9 °C 30.27 in /  1024.9 hPa Calm     90 % 0.00 in /  0 mm 0 W/m2
01:29 39.7 °F /  4.3 °C 37.0 °F /  2.8 °C 30.27 in /  1024.9 hPa Calm     90 % 0.00 in /  0 mm 0 W/m2
01:34 39.6 °F /  4.2 °C 36.9 °F /  2.7 °C 30.27 in /  1024.9 hPa Calm     90 % 0.00 in /  0 mm 0 W/m2
01:39 39.6 °F /  4.2 °C 36.9 °F /  2.7 °C 30.27 in /  1024.9 hPa Calm     90 % 0.00 in /  0 mm 0 W/m2
01:44 39.4 °F /  4.1 °C 36.7 °F /  2.6 °C 30.26 in /  1024.6 hPa Calm     90 % 0.00 in /  0 mm 0 W/m2
01:49 39.2 °F /  4 °C 36.5 °F /  2.5 °C 30.26 in /  1024.6 hPa Calm     90 % 0.00 in /  0 mm 0 W/m2
01:54 39.2 °F /  4 °C 36.8 °F /  2.7 °C 30.26 in /  1024.6 hPa Calm     91 % 0.00 in /  0 mm 0 W/m2
01:59 39.0 °F /  3.9 °C 36.6 °F /  2.6 °C 30.26 in /  1024.6 hPa Calm     91 % 0.00 in /  0 mm 0 W/m2
02:04 39.0 °F /  3.9 °C 36.6 °F /  2.6 °C 30.26 in /  1024.6 hPa Calm     91 % 0.00 in /  0 mm 0 W/m2
02:09 39.0 °F /  3.9 °C 36.6 °F /  2.6 °C 30.26 in /  1024.6 hPa Calm     91 % 0.00 in /  0 mm 0 W/m2
02:14 39.0 °F /  3.9 °C 36.6 °F /  2.6 °C 30.26 in /  1024.6 hPa Calm     91 % 0.00 in /  0 mm 0 W/m2
02:19 39.0 °F /  3.9 °C 36.6 °F /  2.6 °C 30.26 in /  1024.6 hPa Calm     91 % 0.00 in /  0 mm 0 W/m2
02:24 38.8 °F /  3.8 °C 36.4 °F /  2.4 °C 30.26 in /  1024.6 hPa Calm     91 % 0.00 in /  0 mm 0 W/m2
02:26 38.7 °F /  3.7 °C 36.3 °F /  2.4 °C 30.26 in /  1024.6 hPa Calm     91 % 0.00 in /  0 mm 0 W/m2
02:31 38.5 °F /  3.6 °C 36.1 °F /  2.3 °C 30.26 in /  1024.6 hPa Calm     91 % 0.00 in /  0 mm 0 W/m2
02:36 38.5 °F /  3.6 °C 36.1 °F /  2.3 °C 30.26 in /  1024.6 hPa Calm     91 % 0.00 in /  0 mm 0 W/m2
02:41 38.1 °F /  3.4 °C 35.7 °F /  2.1 °C 30.26 in /  1024.6 hPa Calm     91 % 0.00 in /  0 mm 0 W/m2
02:44 38.1 °F /  3.4 °C 35.7 °F /  2.1 °C 30.26 in /  1024.6 hPa Calm     91 % 0.00 in /  0 mm 0 W/m2
02:49 37.9 °F /  3.3 °C 35.5 °F /  1.9 °C 30.26 in /  1024.6 hPa Calm     91 % 0.00 in /  0 mm 0 W/m2
02:54 37.9 °F /  3.3 °C 35.5 °F /  1.9 °C 30.26 in /  1024.6 hPa Calm     91 % 0.00 in /  0 mm 0 W/m2
02:59 37.8 °F /  3.2 °C 35.4 °F /  1.9 °C 30.26 in /  1024.6 hPa Calm     91 % 0.00 in /  0 mm 0 W/m2
03:04 37.6 °F /  3.1 °C 35.5 °F /  1.9 °C 30.25 in /  1024.3 hPa Calm     92 % 0.00 in /  0 mm 0 W/m2
03:09 37.6 °F /  3.1 °C 35.5 °F /  1.9 °C 30.26 in /  1024.6 hPa Calm     92 % 0.00 in /  0 mm 0 W/m2
03:10 37.6 °F /  3.1 °C 35.5 °F /  1.9 °C 30.26 in /  1024.6 hPa Calm     92 % 0.00 in /  0 mm 0 W/m2
03:15 37.4 °F /  3 °C 35.3 °F /  1.8 °C 30.25 in /  1024.3 hPa Calm     92 % 0.00 in /  0 mm 0 W/m2
03:20 37.2 °F /  2.9 °C 35.1 °F /  1.7 °C 30.25 in /  1024.3 hPa Calm     92 % 0.00 in /  0 mm 0 W/m2
03:25 37.2 °F /  2.9 °C 35.1 °F /  1.7 °C 30.25 in /  1024.3 hPa Calm     92 % 0.00 in /  0 mm 0 W/m2
03:30 37.0 °F /  2.8 °C 34.9 °F /  1.6 °C 30.25 in /  1024.3 hPa Calm     92 % 0.00 in /  0 mm 0 W/m2
03:32 37.0 °F /  2.8 °C 34.9 °F /  1.6 °C 30.25 in /  1024.3 hPa Calm     92 % 0.00 in /  0 mm 0 W/m2
03:37 37.0 °F /  2.8 °C 34.9 °F /  1.6 °C 30.25 in /  1024.3 hPa Calm     92 % 0.00 in /  0 mm 0 W/m2
03:42 36.9 °F /  2.7 °C 35.0 °F /  1.7 °C 30.25 in /  1024.3 hPa Calm     93 % 0.00 in /  0 mm 0 W/m2
03:47 36.9 °F /  2.7 °C 35.0 °F /  1.7 °C 30.25 in /  1024.3 hPa Calm     93 % 0.00 in /  0 mm 0 W/m2
03:52 37.0 °F /  2.8 °C 35.2 °F /  1.8 °C 30.25 in /  1024.3 hPa Calm     93 % 0.00 in /  0 mm 0 W/m2
03:57 37.0 °F /  2.8 °C 35.2 °F /  1.8 °C 30.25 in /  1024.3 hPa Calm     93 % 0.00 in /  0 mm 0 W/m2
04:02 37.0 °F /  2.8 °C 35.2 °F /  1.8 °C 30.25 in /  1024.3 hPa Calm     93 % 0.00 in /  0 mm 0 W/m2
04:07 37.0 °F /  2.8 °C 35.2 °F /  1.8 °C 30.25 in /  1024.3 hPa Calm     93 % 0.00 in /  0 mm 0 W/m2
04:12 36.9 °F /  2.7 °C 35.0 °F /  1.7 °C 30.25 in /  1024.3 hPa Calm     93 % 0.00 in /  0 mm 0 W/m2
04:17 36.9 °F /  2.7 °C 35.0 °F /  1.7 °C 30.25 in /  1024.3 hPa Calm     93 % 0.00 in /  0 mm 0 W/m2
04:22 37.0 °F /  2.8 °C 35.2 °F /  1.8 °C 30.24 in /  1023.9 hPa Calm     93 % 0.00 in /  0 mm 0 W/m2
04:27 37.0 °F /  2.8 °C 35.2 °F /  1.8 °C 30.24 in /  1023.9 hPa Calm     93 % 0.00 in /  0 mm 0 W/m2
04:32 37.0 °F /  2.8 °C 35.2 °F /  1.8 °C 30.24 in /  1023.9 hPa Calm     93 % 0.00 in /  0 mm 0 W/m2
04:37 37.2 °F /  2.9 °C 35.7 °F /  2.1 °C 30.24 in /  1023.9 hPa Calm     94 % 0.00 in /  0 mm 0 W/m2
04:42 37.6 °F /  3.1 °C 36.0 °F /  2.2 °C 30.24 in /  1023.9 hPa Calm   2.0 mph /  3.2 km/h 94 % 0.00 in /  0 mm 0 W/m2
04:47 37.8 °F /  3.2 °C 36.2 °F /  2.3 °C 30.24 in /  1023.9 hPa Calm   2.0 mph /  3.2 km/h 94 % 0.00 in /  0 mm 0 W/m2
04:52 37.9 °F /  3.3 °C 36.4 °F /  2.4 °C 30.24 in /  1023.9 hPa Calm   1.0 mph /  1.6 km/h 94 % 0.00 in /  0 mm 0 W/m2
04:57 37.9 °F /  3.3 °C 36.4 °F /  2.4 °C 30.24 in /  1023.9 hPa Calm   1.0 mph /  1.6 km/h 94 % 0.00 in /  0 mm 0 W/m2
05:02 38.1 °F /  3.4 °C 36.5 °F /  2.5 °C 30.24 in /  1023.9 hPa Calm     94 % 0.00 in /  0 mm 0 W/m2
05:07 38.1 °F /  3.4 °C 36.5 °F /  2.5 °C 30.24 in /  1023.9 hPa Calm     94 % 0.00 in /  0 mm 0 W/m2
05:12 37.9 °F /  3.3 °C 36.4 °F /  2.4 °C 30.24 in /  1023.9 hPa Calm     94 % 0.00 in /  0 mm 0 W/m2
05:18 37.8 °F /  3.2 °C 35.9 °F /  2.2 °C 30.24 in /  1023.9 hPa Calm     93 % 0.00 in /  0 mm 0 W/m2
05:23 37.6 °F /  3.1 °C 35.7 °F /  2.1 °C 30.24 in /  1023.9 hPa Calm     93 % 0.00 in /  0 mm 0 W/m2
05:28 37.6 °F /  3.1 °C 35.7 °F /  2.1 °C 30.24 in /  1023.9 hPa Calm     93 % 0.00 in /  0 mm 0 W/m2
05:33 37.6 °F /  3.1 °C 35.7 °F /  2.1 °C 30.24 in /  1023.9 hPa Calm     93 % 0.00 in /  0 mm 0 W/m2
05:38 37.6 °F /  3.1 °C 36.0 °F /  2.2 °C 30.24 in /  1023.9 hPa Calm   2.0 mph /  3.2 km/h 94 % 0.00 in /  0 mm 0 W/m2
05:43 37.6 °F /  3.1 °C 35.7 °F /  2.1 °C 30.24 in /  1023.9 hPa Calm   2.0 mph /  3.2 km/h 93 % 0.00 in /  0 mm 0 W/m2
05:48 37.6 °F /  3.1 °C 35.7 °F /  2.1 °C 30.24 in /  1023.9 hPa Calm     93 % 0.00 in /  0 mm 0 W/m2
05:53 37.6 °F /  3.1 °C 35.7 °F /  2.1 °C 30.24 in /  1023.9 hPa Calm   1.0 mph /  1.6 km/h 93 % 0.00 in /  0 mm 0 W/m2
05:58 37.6 °F /  3.1 °C 36.0 °F /  2.2 °C 30.24 in /  1023.9 hPa Calm   1.0 mph /  1.6 km/h 94 % 0.00 in /  0 mm 0 W/m2
06:03 37.8 °F /  3.2 °C 36.2 °F /  2.3 °C 30.24 in /  1023.9 hPa Calm   1.0 mph /  1.6 km/h 94 % 0.00 in /  0 mm 0 W/m2
06:08 37.9 °F /  3.3 °C 36.4 °F /  2.4 °C 30.24 in /  1023.9 hPa Calm   2.0 mph /  3.2 km/h 94 % 0.00 in /  0 mm 0 W/m2
06:13 38.1 °F /  3.4 °C 36.5 °F /  2.5 °C 30.24 in /  1023.9 hPa Calm   2.0 mph /  3.2 km/h 94 % 0.00 in /  0 mm 0 W/m2
06:18 38.1 °F /  3.4 °C 36.5 °F /  2.5 °C 30.23 in /  1023.6 hPa Calm     94 % 0.00 in /  0 mm 0 W/m2
06:23 38.1 °F /  3.4 °C 36.5 °F /  2.5 °C 30.23 in /  1023.6 hPa Calm     94 % 0.00 in /  0 mm 5 W/m2
06:28 38.1 °F /  3.4 °C 36.5 °F /  2.5 °C 30.23 in /  1023.6 hPa Calm     94 % 0.00 in /  0 mm 7 W/m2
06:33 38.1 °F /  3.4 °C 36.5 °F /  2.5 °C 30.23 in /  1023.6 hPa Calm     94 % 0.00 in /  0 mm 9 W/m2
06:38 37.9 °F /  3.3 °C 36.4 °F /  2.4 °C 30.23 in /  1023.6 hPa Calm     94 % 0.00 in /  0 mm 11 W/m2
06:43 38.1 °F /  3.4 °C 36.5 °F /  2.5 °C 30.23 in /  1023.6 hPa Calm   1.0 mph /  1.6 km/h 94 % 0.00 in /  0 mm 12 W/m2
06:48 38.3 °F /  3.5 °C 36.7 °F /  2.6 °C 30.23 in /  1023.6 hPa Calm   1.0 mph /  1.6 km/h 94 % 0.00 in /  0 mm 16 W/m2
06:53 38.5 °F /  3.6 °C 36.9 °F /  2.7 °C 30.23 in /  1023.6 hPa Calm   1.0 mph /  1.6 km/h 94 % 0.00 in /  0 mm 19 W/m2
06:58 38.7 °F /  3.7 °C 37.1 °F /  2.8 °C 30.23 in /  1023.6 hPa Calm   1.0 mph /  1.6 km/h 94 % 0.00 in /  0 mm 25 W/m2
07:03 38.8 °F /  3.8 °C 37.3 °F /  2.9 °C 30.23 in /  1023.6 hPa Calm   1.0 mph /  1.6 km/h 94 % 0.00 in /  0 mm 28 W/m2
07:08 39.0 °F /  3.9 °C 37.4 °F /  3 °C 30.23 in /  1023.6 hPa Calm     94 % 0.00 in /  0 mm 30 W/m2
07:13 39.2 °F /  4 °C 37.6 °F /  3.1 °C 30.23 in /  1023.6 hPa Calm   1.0 mph /  1.6 km/h 94 % 0.00 in /  0 mm 33 W/m2
07:18 39.0 °F /  3.9 °C 37.2 °F /  2.9 °C 30.24 in /  1023.9 hPa Calm   4.0 mph /  6.4 km/h 93 % 0.00 in /  0 mm 37 W/m2
07:23 39.0 °F /  3.9 °C 37.2 °F /  2.9 °C 30.24 in /  1023.9 hPa Calm   4.0 mph /  6.4 km/h 93 % 0.00 in /  0 mm 39 W/m2
07:28 39.0 °F /  3.9 °C 37.2 °F /  2.9 °C 30.23 in /  1023.6 hPa Calm     93 % 0.00 in /  0 mm 42 W/m2
07:29 39.0 °F /  3.9 °C 37.2 °F /  2.9 °C 30.23 in /  1023.6 hPa Calm     93 % 0.00 in /  0 mm 44 W/m2
07:34 39.4 °F /  4.1 °C 37.5 °F /  3.1 °C 30.24 in /  1023.9 hPa Calm     93 % 0.00 in /  0 mm 46 W/m2
07:39 39.6 °F /  4.2 °C 38.0 °F /  3.3 °C 30.23 in /  1023.6 hPa Calm     94 % 0.00 in /  0 mm 51 W/m2
07:45 39.7 °F /  4.3 °C 38.2 °F /  3.4 °C 30.23 in /  1023.6 hPa Calm     94 % 0.00 in /  0 mm 58 W/m2
07:50 39.9 °F /  4.4 °C 38.3 °F /  3.5 °C 30.23 in /  1023.6 hPa Calm     94 % 0.00 in /  0 mm 62 W/m2
07:51 40.1 °F /  4.5 °C 38.5 °F /  3.6 °C 30.23 in /  1023.6 hPa Calm     94 % 0.00 in /  0 mm 63 W/m2
07:56 40.5 °F /  4.7 °C 38.9 °F /  3.8 °C 30.23 in /  1023.6 hPa Calm     94 % 0.00 in /  0 mm 67 W/m2
08:01 40.8 °F /  4.9 °C 39.2 °F /  4 °C 30.23 in /  1023.6 hPa Calm   2.0 mph /  3.2 km/h 94 % 0.00 in /  0 mm 70 W/m2
08:06 41.4 °F /  5.2 °C 39.8 °F /  4.3 °C 30.23 in /  1023.6 hPa Calm   2.0 mph /  3.2 km/h 94 % 0.00 in /  0 mm 178 W/m2
08:11 42.1 °F /  5.6 °C 40.5 °F /  4.7 °C 30.23 in /  1023.6 hPa Calm   2.0 mph /  3.2 km/h 94 % 0.00 in /  0 mm 199 W/m2
08:16 43.0 °F /  6.1 °C 41.6 °F /  5.3 °C 30.23 in /  1023.6 hPa Calm   2.0 mph /  3.2 km/h 95 % 0.00 in /  0 mm 211 W/m2
08:21 44.1 °F /  6.7 °C 42.4 °F /  5.8 °C 30.23 in /  1023.6 hPa Calm   2.0 mph /  3.2 km/h 94 % 0.00 in /  0 mm 239 W/m2
08:26 45.1 °F /  7.3 °C 43.0 °F /  6.1 °C 30.23 in /  1023.6 hPa SSE 1.0 mph /  1.6 km/h 4.0 mph /  6.4 km/h 92 % 0.00 in /  0 mm 258 W/m2
08:31 46.0 °F /  7.8 °C 43.3 °F /  6.3 °C 30.23 in /  1023.6 hPa South 2.0 mph /  3.2 km/h 9.0 mph /  14.5 km/h 90 % 0.00 in /  0 mm 244 W/m2
08:36 46.9 °F /  8.3 °C 43.0 °F /  6.1 °C 30.23 in /  1023.6 hPa SSW 4.0 mph /  6.4 km/h 13.0 mph /  20.9 km/h 86 % 0.00 in /  0 mm 264 W/m2
08:41 47.8 °F /  8.8 °C 42.9 °F /  6.1 °C 30.23 in /  1023.6 hPa SSW 6.0 mph /  9.7 km/h 13.0 mph /  20.9 km/h 83 % 0.00 in /  0 mm 265 W/m2
08:46 48.6 °F /  9.2 °C 42.7 °F /  5.9 °C 30.23 in /  1023.6 hPa SSW 7.0 mph /  11.3 km/h 11.0 mph /  17.7 km/h 80 % 0.00 in /  0 mm 260 W/m2
08:51 49.1 °F /  9.5 °C 42.5 °F /  5.8 °C 30.23 in /  1023.6 hPa SSW 6.0 mph /  9.7 km/h 9.0 mph /  14.5 km/h 78 % 0.00 in /  0 mm 279 W/m2
08:56 49.6 °F /  9.8 °C 42.7 °F /  5.9 °C 30.23 in /  1023.6 hPa SSW 5.0 mph /  8 km/h 8.0 mph /  12.9 km/h 77 % 0.00 in /  0 mm 285 W/m2
09:01 50.2 °F /  10.1 °C 42.9 °F /  6.1 °C 30.23 in /  1023.6 hPa SW 4.0 mph /  6.4 km/h 8.0 mph /  12.9 km/h 76 % 0.00 in /  0 mm 315 W/m2
09:06 50.5 °F /  10.3 °C 42.9 °F /  6.1 °C 30.23 in /  1023.6 hPa SW 4.0 mph /  6.4 km/h 8.0 mph /  12.9 km/h 75 % 0.00 in /  0 mm 338 W/m2
09:11 51.1 °F /  10.6 °C 42.7 °F /  5.9 °C 30.23 in /  1023.6 hPa SW 4.0 mph /  6.4 km/h 9.0 mph /  14.5 km/h 73 % 0.00 in /  0 mm 385 W/m2
09:16 51.4 °F /  10.8 °C 41.6 °F /  5.3 °C 30.23 in /  1023.6 hPa SSW 6.0 mph /  9.7 km/h 12.0 mph /  19.3 km/h 69 % 0.00 in /  0 mm 388 W/m2
09:21 52.0 °F /  11.1 °C 41.7 °F /  5.4 °C 30.23 in /  1023.6 hPa SSW 7.0 mph /  11.3 km/h 13.0 mph /  20.9 km/h 68 % 0.00 in /  0 mm 410 W/m2
09:26 52.3 °F /  11.3 °C 42.1 °F /  5.6 °C 30.23 in /  1023.6 hPa SSW 7.0 mph /  11.3 km/h 13.0 mph /  20.9 km/h 68 % 0.00 in /  0 mm 417 W/m2
09:31 52.7 °F /  11.5 °C 42.4 °F /  5.8 °C 30.23 in /  1023.6 hPa SSW 6.0 mph /  9.7 km/h 12.0 mph /  19.3 km/h 68 % 0.00 in /  0 mm 415 W/m2
09:36 52.9 °F /  11.6 °C 43.0 °F /  6.1 °C 30.23 in /  1023.6 hPa South 6.0 mph /  9.7 km/h 12.0 mph /  19.3 km/h 69 % 0.00 in /  0 mm 422 W/m2
09:41 53.1 °F /  11.7 °C 43.5 °F /  6.4 °C 30.23 in /  1023.6 hPa South 6.0 mph /  9.7 km/h 11.0 mph /  17.7 km/h 70 % 0.00 in /  0 mm 436 W/m2
09:46 53.4 °F /  11.9 °C 43.9 °F /  6.6 °C 30.23 in /  1023.6 hPa South 5.0 mph /  8 km/h 9.0 mph /  14.5 km/h 70 % 0.00 in /  0 mm 455 W/m2
09:51 53.8 °F /  12.1 °C 43.5 °F /  6.4 °C 30.22 in /  1023.2 hPa South 6.0 mph /  9.7 km/h 12.0 mph /  19.3 km/h 68 % 0.00 in /  0 mm 462 W/m2
09:56 54.1 °F /  12.3 °C 43.4 °F /  6.3 °C 30.22 in /  1023.2 hPa South 7.0 mph /  11.3 km/h 12.0 mph /  19.3 km/h 67 % 0.00 in /  0 mm 446 W/m2
10:01 54.1 °F /  12.3 °C 43.4 °F /  6.3 °C 30.22 in /  1023.2 hPa SSE 6.0 mph /  9.7 km/h 10.0 mph /  16.1 km/h 67 % 0.00 in /  0 mm 480 W/m2
10:06 54.3 °F /  12.4 °C 44.0 °F /  6.7 °C 30.22 in /  1023.2 hPa South 6.0 mph /  9.7 km/h 11.0 mph /  17.7 km/h 68 % 0.00 in /  0 mm 504 W/m2
10:12 54.9 °F /  12.7 °C 43.7 °F /  6.5 °C 30.22 in /  1023.2 hPa SSW 9.0 mph /  14.5 km/h 21.0 mph /  33.8 km/h 66 % 0.00 in /  0 mm 510 W/m2
10:17 55.0 °F /  12.8 °C 43.5 °F /  6.4 °C 30.22 in /  1023.2 hPa SSW 12.0 mph /  19.3 km/h 21.0 mph /  33.8 km/h 65 % 0.00 in /  0 mm 510 W/m2
10:22 55.0 °F /  12.8 °C 43.1 °F /  6.2 °C 30.22 in /  1023.2 hPa SSW 11.0 mph /  17.7 km/h 20.0 mph /  32.2 km/h 64 % 0.00 in /  0 mm 490 W/m2
10:27 55.4 °F /  13 °C 43.4 °F /  6.3 °C 30.22 in /  1023.2 hPa SSW 10.0 mph /  16.1 km/h 20.0 mph /  32.2 km/h 64 % 0.00 in /  0 mm 536 W/m2
10:32 55.6 °F /  13.1 °C 43.2 °F /  6.2 °C 30.22 in /  1023.2 hPa SSW 10.0 mph /  16.1 km/h 20.0 mph /  32.2 km/h 63 % 0.00 in /  0 mm 571 W/m2
10:37 55.8 °F /  13.2 °C 43.3 °F /  6.3 °C 30.22 in /  1023.2 hPa SSW 12.0 mph /  19.3 km/h 21.0 mph /  33.8 km/h 63 % 0.00 in /  0 mm 538 W/m2
10:42 55.8 °F /  13.2 °C 42.5 °F /  5.8 °C 30.21 in /  1022.9 hPa South 12.0 mph /  19.3 km/h 21.0 mph /  33.8 km/h 61 % 0.00 in /  0 mm 573 W/m2
10:47 55.9 °F /  13.3 °C 42.2 °F /  5.7 °C 30.21 in /  1022.9 hPa South 11.0 mph /  17.7 km/h 20.0 mph /  32.2 km/h 60 % 0.00 in /  0 mm 585 W/m2
10:52 56.3 °F /  13.5 °C 43.0 °F /  6.1 °C 30.21 in /  1022.9 hPa SSW 11.0 mph /  17.7 km/h 18.0 mph /  29 km/h 61 % 0.00 in /  0 mm 591 W/m2
10:57 56.8 °F /  13.8 °C 43.5 °F /  6.4 °C 30.21 in /  1022.9 hPa SSW 10.0 mph /  16.1 km/h 19.0 mph /  30.6 km/h 61 % 0.00 in /  0 mm 608 W/m2
11:02 57.0 °F /  13.9 °C 42.4 °F /  5.8 °C 30.21 in /  1022.9 hPa SSW 11.0 mph /  17.7 km/h 20.0 mph /  32.2 km/h 58 % 0.00 in /  0 mm 610 W/m2
11:07 57.0 °F /  13.9 °C 42.4 °F /  5.8 °C 30.21 in /  1022.9 hPa SSW 12.0 mph /  19.3 km/h 20.0 mph /  32.2 km/h 58 % 0.00 in /  0 mm 624 W/m2
11:12 57.2 °F /  14 °C 42.5 °F /  5.8 °C 30.21 in /  1022.9 hPa SSW 12.0 mph /  19.3 km/h 20.0 mph /  32.2 km/h 58 % 0.00 in /  0 mm 647 W/m2
11:17 57.4 °F /  14.1 °C 42.7 °F /  5.9 °C 30.21 in /  1022.9 hPa SSW 11.0 mph /  17.7 km/h 19.0 mph /  30.6 km/h 58 % 0.00 in /  0 mm 587 W/m2
11:22 57.6 °F /  14.2 °C 42.4 °F /  5.8 °C 30.21 in /  1022.9 hPa SW 11.0 mph /  17.7 km/h 27.0 mph /  43.5 km/h 57 % 0.00 in /  0 mm 628 W/m2
11:27 57.4 °F /  14.1 °C 41.8 °F /  5.4 °C 30.21 in /  1022.9 hPa SSW 12.0 mph /  19.3 km/h 27.0 mph /  43.5 km/h 56 % 0.00 in /  0 mm 643 W/m2
11:32 57.6 °F /  14.2 °C 42.4 °F /  5.8 °C 30.20 in /  1022.6 hPa SSW 12.0 mph /  19.3 km/h 27.0 mph /  43.5 km/h 57 % 0.00 in /  0 mm 652 W/m2
11:37 57.7 °F /  14.3 °C 42.6 °F /  5.9 °C 30.20 in /  1022.6 hPa SW 11.0 mph /  17.7 km/h 16.0 mph /  25.7 km/h 57 % 0.00 in /  0 mm 643 W/m2
11:42 57.9 °F /  14.4 °C 41.8 °F /  5.4 °C 30.20 in /  1022.6 hPa SW 11.0 mph /  17.7 km/h 19.0 mph /  30.6 km/h 55 % 0.00 in /  0 mm 638 W/m2
11:47 57.9 °F /  14.4 °C 42.3 °F /  5.7 °C 30.20 in /  1022.6 hPa SW 11.0 mph /  17.7 km/h 19.0 mph /  30.6 km/h 56 % 0.00 in /  0 mm 670 W/m2
11:52 58.3 °F /  14.6 °C 41.7 °F /  5.4 °C 30.20 in /  1022.6 hPa SSW 11.0 mph /  17.7 km/h 19.0 mph /  30.6 km/h 54 % 0.00 in /  0 mm 636 W/m2
11:57 58.5 °F /  14.7 °C 41.9 °F /  5.5 °C 30.20 in /  1022.6 hPa SSW 12.0 mph /  19.3 km/h 20.0 mph /  32.2 km/h 54 % 0.00 in /  0 mm 640 W/m2
12:02 58.6 °F /  14.8 °C 42.5 °F /  5.8 °C 30.19 in /  1022.2 hPa SSW 11.0 mph /  17.7 km/h 20.0 mph /  32.2 km/h 55 % 0.00 in /  0 mm 628 W/m2
12:07 58.8 °F /  14.9 °C 41.7 °F /  5.4 °C 30.19 in /  1022.2 hPa SSW 10.0 mph /  16.1 km/h 21.0 mph /  33.8 km/h 53 % 0.00 in /  0 mm 566 W/m2
12:12 58.6 °F /  14.8 °C 41.5 °F /  5.3 °C 30.19 in /  1022.2 hPa SSW 12.0 mph /  19.3 km/h 22.0 mph /  35.4 km/h 53 % 0.00 in /  0 mm 564 W/m2
12:17 58.8 °F /  14.9 °C 42.2 °F /  5.7 °C 30.19 in /  1022.2 hPa SW 11.0 mph /  17.7 km/h 22.0 mph /  35.4 km/h 54 % 0.00 in /  0 mm 605 W/m2
12:22 58.8 °F /  14.9 °C 42.2 °F /  5.7 °C 30.19 in /  1022.2 hPa SW 11.0 mph /  17.7 km/h 20.0 mph /  32.2 km/h 54 % 0.00 in /  0 mm 640 W/m2
12:27 58.8 °F /  14.9 °C 43.1 °F /  6.2 °C 30.19 in /  1022.2 hPa SW 12.0 mph /  19.3 km/h 19.0 mph /  30.6 km/h 56 % 0.00 in /  0 mm 610 W/m2
12:32 58.8 °F /  14.9 °C 42.7 °F /  5.9 °C 30.19 in /  1022.2 hPa SW 11.0 mph /  17.7 km/h 19.0 mph /  30.6 km/h 55 % 0.00 in /  0 mm 605 W/m2
12:37 58.8 °F /  14.9 °C 43.6 °F /  6.4 °C 30.19 in /  1022.2 hPa SSW 11.0 mph /  17.7 km/h 19.0 mph /  30.6 km/h 57 % 0.00 in /  0 mm 613 W/m2
12:42 58.8 °F /  14.9 °C 43.1 °F /  6.2 °C 30.18 in /  1021.9 hPa SSW 11.0 mph /  17.7 km/h 20.0 mph /  32.2 km/h 56 % 0.00 in /  0 mm 656 W/m2
12:47 58.6 °F /  14.8 °C 42.5 °F /  5.8 °C 30.18 in /  1021.9 hPa SSW 13.0 mph /  20.9 km/h 27.0 mph /  43.5 km/h 55 % 0.00 in /  0 mm 626 W/m2
12:52 58.5 °F /  14.7 °C 43.3 °F /  6.3 °C 30.18 in /  1021.9 hPa SSW 13.0 mph /  20.9 km/h 27.0 mph /  43.5 km/h 57 % 0.00 in /  0 mm 306 W/m2
12:57 58.3 °F /  14.6 °C 43.6 °F /  6.4 °C 30.18 in /  1021.9 hPa SW 10.0 mph /  16.1 km/h 19.0 mph /  30.6 km/h 58 % 0.00 in /  0 mm 316 W/m2
13:02 58.6 °F /  14.8 °C 43.9 °F /  6.6 °C 30.18 in /  1021.9 hPa SW 10.0 mph /  16.1 km/h 18.0 mph /  29 km/h 58 % 0.00 in /  0 mm 773 W/m2
13:07 59.4 °F /  15.2 °C 43.7 °F /  6.5 °C 30.18 in /  1021.9 hPa SW 11.0 mph /  17.7 km/h 18.0 mph /  29 km/h 56 % 0.00 in /  0 mm 735 W/m2
13:13 59.7 °F /  15.4 °C 42.1 °F /  5.6 °C 30.18 in /  1021.9 hPa SSW 13.0 mph /  20.9 km/h 28.0 mph /  45.1 km/h 52 % 0.00 in /  0 mm 721 W/m2
13:18 59.7 °F /  15.4 °C 41.0 °F /  5 °C 30.17 in /  1021.6 hPa SSW 14.0 mph /  22.5 km/h 28.0 mph /  45.1 km/h 50 % 0.00 in /  0 mm 735 W/m2
13:23 60.1 °F /  15.6 °C 40.3 °F /  4.6 °C 30.18 in /  1021.9 hPa SW 15.0 mph /  24.1 km/h 27.0 mph /  43.5 km/h 48 % 0.00 in /  0 mm 656 W/m2
13:28 59.9 °F /  15.5 °C 40.1 °F /  4.5 °C 30.17 in /  1021.6 hPa SSW 16.0 mph /  25.7 km/h 27.0 mph /  43.5 km/h 48 % 0.00 in /  0 mm 677 W/m2
13:33 60.1 °F /  15.6 °C 40.8 °F /  4.9 °C 30.17 in /  1021.6 hPa SSW 13.0 mph /  20.9 km/h 24.0 mph /  38.6 km/h 49 % 0.00 in /  0 mm 722 W/m2
13:38 60.4 °F /  15.8 °C 41.7 °F /  5.4 °C 30.17 in /  1021.6 hPa SSW 10.0 mph /  16.1 km/h 24.0 mph /  38.6 km/h 50 % 0.00 in /  0 mm 701 W/m2
13:43 60.6 °F /  15.9 °C 41.9 °F /  5.5 °C 30.17 in /  1021.6 hPa South 10.0 mph /  16.1 km/h 20.0 mph /  32.2 km/h 50 % 0.00 in /  0 mm 663 W/m2
13:48 60.6 °F /  15.9 °C 41.3 °F /  5.2 °C 30.17 in /  1021.6 hPa South 12.0 mph /  19.3 km/h 20.0 mph /  32.2 km/h 49 % 0.00 in /  0 mm 675 W/m2
13:53 60.6 °F /  15.9 °C 41.3 °F /  5.2 °C 30.17 in /  1021.6 hPa South 12.0 mph /  19.3 km/h 21.0 mph /  33.8 km/h 49 % 0.00 in /  0 mm 670 W/m2
13:58 60.6 °F /  15.9 °C 41.3 °F /  5.2 °C 30.17 in /  1021.6 hPa SSW 12.0 mph /  19.3 km/h 22.0 mph /  35.4 km/h 49 % 0.00 in /  0 mm 682 W/m2
14:03 60.8 °F /  16 °C 41.5 °F /  5.3 °C 30.17 in /  1021.6 hPa South 11.0 mph /  17.7 km/h 22.0 mph /  35.4 km/h 49 % 0.00 in /  0 mm 722 W/m2
14:08 61.2 °F /  16.2 °C 41.8 °F /  5.4 °C 30.17 in /  1021.6 hPa SSW 11.0 mph /  17.7 km/h 19.0 mph /  30.6 km/h 49 % 0.00 in /  0 mm 659 W/m2
14:13 61.2 °F /  16.2 °C 40.8 °F /  4.9 °C 30.17 in /  1021.6 hPa SW 12.0 mph /  19.3 km/h 22.0 mph /  35.4 km/h 47 % 0.00 in /  0 mm 691 W/m2
14:18 60.8 °F /  16 °C 41.0 °F /  5 °C 30.17 in /  1021.6 hPa SSW 13.0 mph /  20.9 km/h 23.0 mph /  37 km/h 48 % 0.00 in /  0 mm 708 W/m2
14:23 60.8 °F /  16 °C 41.0 °F /  5 °C 30.16 in /  1021.2 hPa SW 12.0 mph /  19.3 km/h 23.0 mph /  37 km/h 48 % 0.00 in /  0 mm 638 W/m2
14:28 61.0 °F /  16.1 °C 41.1 °F /  5.1 °C 30.16 in /  1021.2 hPa SW 11.0 mph /  17.7 km/h 22.0 mph /  35.4 km/h 48 % 0.00 in /  0 mm 664 W/m2
14:33 60.8 °F /  16 °C 41.0 °F /  5 °C 30.16 in /  1021.2 hPa SSW 12.0 mph /  19.3 km/h 22.0 mph /  35.4 km/h 48 % 0.00 in /  0 mm 691 W/m2
14:38 61.2 °F /  16.2 °C 42.4 °F /  5.8 °C 30.16 in /  1021.2 hPa SSW 10.0 mph /  16.1 km/h 18.0 mph /  29 km/h 50 % 0.00 in /  0 mm 647 W/m2
14:43 61.5 °F /  16.4 °C 41.6 °F /  5.3 °C 30.16 in /  1021.2 hPa South 9.0 mph /  14.5 km/h 19.0 mph /  30.6 km/h 48 % 0.00 in /  0 mm 617 W/m2
14:48 61.5 °F /  16.4 °C 42.7 °F /  5.9 °C 30.15 in /  1020.9 hPa SSW 11.0 mph /  17.7 km/h 20.0 mph /  32.2 km/h 50 % 0.00 in /  0 mm 555 W/m2
14:53 61.7 °F /  16.5 °C 42.3 °F /  5.7 °C 30.16 in /  1021.2 hPa SSW 11.0 mph /  17.7 km/h 22.0 mph /  35.4 km/h 49 % 0.00 in /  0 mm 652 W/m2
14:58 61.5 °F /  16.4 °C 42.2 °F /  5.7 °C 30.15 in /  1020.9 hPa SSW 11.0 mph /  17.7 km/h 22.0 mph /  35.4 km/h 49 % 0.00 in /  0 mm 605 W/m2
15:03 61.5 °F /  16.4 °C 42.2 °F /  5.7 °C 30.15 in /  1020.9 hPa SSW 10.0 mph /  16.1 km/h 20.0 mph /  32.2 km/h 49 % 0.00 in /  0 mm 582 W/m2
15:08 61.5 °F /  16.4 °C 41.1 °F /  5.1 °C 30.16 in /  1021.2 hPa SW 12.0 mph /  19.3 km/h 24.0 mph /  38.6 km/h 47 % 0.00 in /  0 mm 559 W/m2
15:13 61.3 °F /  16.3 °C 42.0 °F /  5.6 °C 30.15 in /  1020.9 hPa SW 13.0 mph /  20.9 km/h 24.0 mph /  38.6 km/h 49 % 0.00 in /  0 mm 570 W/m2
15:18 61.3 °F /  16.3 °C 42.0 °F /  5.6 °C 30.15 in /  1020.9 hPa SW 12.0 mph /  19.3 km/h 22.0 mph /  35.4 km/h 49 % 0.00 in /  0 mm 596 W/m2
15:23 61.7 °F /  16.5 °C 41.3 °F /  5.2 °C 30.15 in /  1020.9 hPa SW 10.0 mph /  16.1 km/h 20.0 mph /  32.2 km/h 47 % 0.00 in /  0 mm 550 W/m2
15:28 61.9 °F /  16.6 °C 42.5 °F /  5.8 °C 30.15 in /  1020.9 hPa SW 10.0 mph /  16.1 km/h 19.0 mph /  30.6 km/h 49 % 0.00 in /  0 mm 571 W/m2
15:33 61.9 °F /  16.6 °C 43.0 °F /  6.1 °C 30.15 in /  1020.9 hPa SSW 11.0 mph /  17.7 km/h 19.0 mph /  30.6 km/h 50 % 0.00 in /  0 mm 580 W/m2
15:38 61.9 °F /  16.6 °C 43.0 °F /  6.1 °C 30.15 in /  1020.9 hPa SSW 11.0 mph /  17.7 km/h 19.0 mph /  30.6 km/h 50 % 0.00 in /  0 mm 536 W/m2
15:43 61.9 °F /  16.6 °C 43.0 °F /  6.1 °C 30.14 in /  1020.5 hPa SW 10.0 mph /  16.1 km/h 19.0 mph /  30.6 km/h 50 % 0.00 in /  0 mm 478 W/m2
15:48 61.5 °F /  16.4 °C 41.6 °F /  5.3 °C 30.15 in /  1020.9 hPa SW 12.0 mph /  19.3 km/h 24.0 mph /  38.6 km/h 48 % 0.00 in /  0 mm 461 W/m2
15:53 61.3 °F /  16.3 °C 42.0 °F /  5.6 °C 30.14 in /  1020.5 hPa SW 13.0 mph /  20.9 km/h 24.0 mph /  38.6 km/h 49 % 0.00 in /  0 mm 438 W/m2
15:58 61.3 °F /  16.3 °C 42.0 °F /  5.6 °C 30.14 in /  1020.5 hPa SW 11.0 mph /  17.7 km/h 21.0 mph /  33.8 km/h 49 % 0.00 in /  0 mm 390 W/m2
16:03 61.3 °F /  16.3 °C 42.0 °F /  5.6 °C 30.14 in /  1020.5 hPa SW 11.0 mph /  17.7 km/h 20.0 mph /  32.2 km/h 49 % 0.00 in /  0 mm 345 W/m2
16:08 61.3 °F /  16.3 °C 41.5 °F /  5.3 °C 30.14 in /  1020.5 hPa SW 11.0 mph /  17.7 km/h 21.0 mph /  33.8 km/h 48 % 0.00 in /  0 mm 454 W/m2
16:13 61.3 °F /  16.3 °C 41.5 °F /  5.3 °C 30.14 in /  1020.5 hPa SW 11.0 mph /  17.7 km/h 22.0 mph /  35.4 km/h 48 % 0.00 in /  0 mm 441 W/m2
16:18 61.2 °F /  16.2 °C 40.8 °F /  4.9 °C 30.14 in /  1020.5 hPa SW 12.0 mph /  19.3 km/h 23.0 mph /  37 km/h 47 % 0.00 in /  0 mm 376 W/m2
16:23 61.0 °F /  16.1 °C 40.6 °F /  4.8 °C 30.13 in /  1020.2 hPa SW 13.0 mph /  20.9 km/h 23.0 mph /  37 km/h 47 % 0.00 in /  0 mm 390 W/m2
16:24 61.0 °F /  16.1 °C 40.6 °F /  4.8 °C 30.13 in /  1020.2 hPa SW 13.0 mph /  20.9 km/h 23.0 mph /  37 km/h 47 % 0.00 in /  0 mm 390 W/m2
16:29 61.0 °F /  16.1 °C 40.6 °F /  4.8 °C 30.13 in /  1020.2 hPa SW 12.0 mph /  19.3 km/h 23.0 mph /  37 km/h 47 % 0.00 in /  0 mm 396 W/m2
16:34 61.0 °F /  16.1 °C 40.6 °F /  4.8 °C 30.13 in /  1020.2 hPa SW 12.0 mph /  19.3 km/h 22.0 mph /  35.4 km/h 47 % 0.00 in /  0 mm 434 W/m2
16:39 61.0 °F /  16.1 °C 41.1 °F /  5.1 °C 30.12 in /  1019.9 hPa SW 12.0 mph /  19.3 km/h 22.0 mph /  35.4 km/h 48 % 0.00 in /  0 mm 385 W/m2
16:44 61.0 °F /  16.1 °C 40.6 °F /  4.8 °C 30.13 in /  1020.2 hPa SW 12.0 mph /  19.3 km/h 21.0 mph /  33.8 km/h 47 % 0.00 in /  0 mm 318 W/m2
16:49 61.0 °F /  16.1 °C 40.0 °F /  4.4 °C 30.13 in /  1020.2 hPa SW 12.0 mph /  19.3 km/h 22.0 mph /  35.4 km/h 46 % 0.00 in /  0 mm 294 W/m2
16:54 60.6 °F /  15.9 °C 40.3 °F /  4.6 °C 30.12 in /  1019.9 hPa SW 11.0 mph /  17.7 km/h 22.0 mph /  35.4 km/h 47 % 0.00 in /  0 mm 220 W/m2
16:59 60.4 °F /  15.8 °C 40.6 °F /  4.8 °C 30.12 in /  1019.9 hPa SW 9.0 mph /  14.5 km/h 20.0 mph /  32.2 km/h 48 % 0.00 in /  0 mm 253 W/m2
17:04 60.4 °F /  15.8 °C 41.2 °F /  5.1 °C 30.12 in /  1019.9 hPa SW 8.0 mph /  12.9 km/h 14.0 mph /  22.5 km/h 49 % 0.00 in /  0 mm 294 W/m2
17:09 60.4 °F /  15.8 °C 40.1 °F /  4.5 °C 30.12 in /  1019.9 hPa SSW 11.0 mph /  17.7 km/h 22.0 mph /  35.4 km/h 47 % 0.00 in /  0 mm 378 W/m2
17:14 60.6 °F /  15.9 °C 41.3 °F /  5.2 °C 30.12 in /  1019.9 hPa SSW 11.0 mph /  17.7 km/h 22.0 mph /  35.4 km/h 49 % 0.00 in /  0 mm 339 W/m2
17:19 60.6 °F /  15.9 °C 40.3 °F /  4.6 °C 30.11 in /  1019.5 hPa SSW 11.0 mph /  17.7 km/h 22.0 mph /  35.4 km/h 47 % 0.00 in /  0 mm 276 W/m2
17:24 60.4 °F /  15.8 °C 40.6 °F /  4.8 °C 30.11 in /  1019.5 hPa SSW 11.0 mph /  17.7 km/h 22.0 mph /  35.4 km/h 48 % 0.00 in /  0 mm 197 W/m2
17:29 60.3 °F /  15.7 °C 40.5 °F /  4.7 °C 30.11 in /  1019.5 hPa SSW 11.0 mph /  17.7 km/h 21.0 mph /  33.8 km/h 48 % 0.00 in /  0 mm 162 W/m2
17:34 59.9 °F /  15.5 °C 41.2 °F /  5.1 °C 30.10 in /  1019.2 hPa SSW 11.0 mph /  17.7 km/h 21.0 mph /  33.8 km/h 50 % 0.00 in /  0 mm 128 W/m2
17:39 59.7 °F /  15.4 °C 41.0 °F /  5 °C 30.11 in /  1019.5 hPa SSW 10.0 mph /  16.1 km/h 19.0 mph /  30.6 km/h 50 % 0.00 in /  0 mm 200 W/m2
17:44 59.7 °F /  15.4 °C 41.0 °F /  5 °C 30.10 in /  1019.2 hPa SSW 11.0 mph /  17.7 km/h 19.0 mph /  30.6 km/h 50 % 0.00 in /  0 mm 239 W/m2
17:49 59.7 °F /  15.4 °C 41.0 °F /  5 °C 30.11 in /  1019.5 hPa South 9.0 mph /  14.5 km/h 19.0 mph /  30.6 km/h 50 % 0.00 in /  0 mm 174 W/m2
17:54 60.1 °F /  15.6 °C 41.9 °F /  5.5 °C 30.10 in /  1019.2 hPa SSW 8.0 mph /  12.9 km/h 18.0 mph /  29 km/h 51 % 0.00 in /  0 mm 221 W/m2
17:59 59.9 °F /  15.5 °C 41.7 °F /  5.4 °C 30.11 in /  1019.5 hPa SSW 9.0 mph /  14.5 km/h 16.0 mph /  25.7 km/h 51 % 0.00 in /  0 mm 241 W/m2
18:04 59.9 °F /  15.5 °C 41.2 °F /  5.1 °C 30.11 in /  1019.5 hPa SSW 9.0 mph /  14.5 km/h 16.0 mph /  25.7 km/h 50 % 0.00 in /  0 mm 202 W/m2
18:09 59.7 °F /  15.4 °C 40.5 °F /  4.7 °C 30.11 in /  1019.5 hPa SW 10.0 mph /  16.1 km/h 18.0 mph /  29 km/h 49 % 0.00 in /  0 mm 160 W/m2
18:14 59.5 °F /  15.3 °C 41.4 °F /  5.2 °C 30.11 in /  1019.5 hPa SSW 11.0 mph /  17.7 km/h 21.0 mph /  33.8 km/h 51 % 0.00 in /  0 mm 181 W/m2
18:19 59.5 °F /  15.3 °C 41.4 °F /  5.2 °C 30.11 in /  1019.5 hPa SSW 10.0 mph /  16.1 km/h 21.0 mph /  33.8 km/h 51 % 0.00 in /  0 mm 213 W/m2
18:24 59.4 °F /  15.2 °C 41.7 °F /  5.4 °C 30.11 in /  1019.5 hPa SSW 9.0 mph /  14.5 km/h 20.0 mph /  32.2 km/h 52 % 0.00 in /  0 mm 116 W/m2
18:29 59.2 °F /  15.1 °C 41.6 °F /  5.3 °C 30.11 in /  1019.5 hPa SW 10.0 mph /  16.1 km/h 19.0 mph /  30.6 km/h 52 % 0.00 in /  0 mm 127 W/m2
18:34 59.0 °F /  15 °C 42.4 °F /  5.8 °C 30.11 in /  1019.5 hPa SW 10.0 mph /  16.1 km/h 19.0 mph /  30.6 km/h 54 % 0.00 in /  0 mm 121 W/m2
18:39 58.8 °F /  14.9 °C 42.7 °F /  5.9 °C 30.11 in /  1019.5 hPa SSW 9.0 mph /  14.5 km/h 15.0 mph /  24.1 km/h 55 % 0.00 in /  0 mm 100 W/m2
18:44 58.6 °F /  14.8 °C 42.5 °F /  5.8 °C 30.11 in /  1019.5 hPa SSW 8.0 mph /  12.9 km/h 18.0 mph /  29 km/h 55 % 0.00 in /  0 mm 81 W/m2
18:49 58.5 °F /  14.7 °C 42.8 °F /  6 °C 30.11 in /  1019.5 hPa SSW 8.0 mph /  12.9 km/h 18.0 mph /  29 km/h 56 % 0.00 in /  0 mm 65 W/m2
18:54 58.1 °F /  14.5 °C 42.9 °F /  6.1 °C 30.11 in /  1019.5 hPa SSW 10.0 mph /  16.1 km/h 21.0 mph /  33.8 km/h 57 % 0.00 in /  0 mm 47 W/m2
18:59 57.7 °F /  14.3 °C 43.1 °F /  6.2 °C 30.11 in /  1019.5 hPa SSW 12.0 mph /  19.3 km/h 21.0 mph /  33.8 km/h 58 % 0.00 in /  0 mm 37 W/m2
19:04 57.7 °F /  14.3 °C 43.5 °F /  6.4 °C 30.11 in /  1019.5 hPa SSW 11.0 mph /  17.7 km/h 20.0 mph /  32.2 km/h 59 % 0.00 in /  0 mm 30 W/m2
19:09 57.4 °F /  14.1 °C 43.6 °F /  6.4 °C 30.12 in /  1019.9 hPa SW 9.0 mph /  14.5 km/h 16.0 mph /  25.7 km/h 60 % 0.00 in /  0 mm 25 W/m2
19:14 57.2 °F /  14 °C 43.4 °F /  6.3 °C 30.12 in /  1019.9 hPa SW 9.0 mph /  14.5 km/h 14.0 mph /  22.5 km/h 60 % 0.00 in /  0 mm 18 W/m2
19:19 57.0 °F /  13.9 °C 43.3 °F /  6.3 °C 30.12 in /  1019.9 hPa SW 9.0 mph /  14.5 km/h 16.0 mph /  25.7 km/h 60 % 0.00 in /  0 mm 14 W/m2
19:24 56.8 °F /  13.8 °C 43.5 °F /  6.4 °C 30.12 in /  1019.9 hPa SW 8.0 mph /  12.9 km/h 16.0 mph /  25.7 km/h 61 % 0.00 in /  0 mm 12 W/m2
19:29 56.7 °F /  13.7 °C 43.4 °F /  6.3 °C 30.12 in /  1019.9 hPa SW 7.0 mph /  11.3 km/h 13.0 mph /  20.9 km/h 61 % 0.00 in /  0 mm 9 W/m2
19:34 56.7 °F /  13.7 °C 43.4 °F /  6.3 °C 30.12 in /  1019.9 hPa SW 8.0 mph /  12.9 km/h 14.0 mph /  22.5 km/h 61 % 0.00 in /  0 mm 7 W/m2
19:39 56.5 °F /  13.6 °C 43.6 °F /  6.4 °C 30.12 in /  1019.9 hPa SSW 9.0 mph /  14.5 km/h 18.0 mph /  29 km/h 62 % 0.00 in /  0 mm 5 W/m2
19:40 56.5 °F /  13.6 °C 43.6 °F /  6.4 °C 30.12 in /  1019.9 hPa SSW 9.0 mph /  14.5 km/h 18.0 mph /  29 km/h 62 % 0.00 in /  0 mm 5 W/m2
19:45 56.1 °F /  13.4 °C 43.3 °F /  6.3 °C 30.12 in /  1019.9 hPa SSW 9.0 mph /  14.5 km/h 18.0 mph /  29 km/h 62 % 0.00 in /  0 mm 0 W/m2
19:50 56.1 °F /  13.4 °C 43.3 °F /  6.3 °C 30.12 in /  1019.9 hPa SW 8.0 mph /  12.9 km/h 18.0 mph /  29 km/h 62 % 0.00 in /  0 mm 0 W/m2
19:55 55.9 °F /  13.3 °C 43.5 °F /  6.4 °C 30.12 in /  1019.9 hPa SW 7.0 mph /  11.3 km/h 11.0 mph /  17.7 km/h 63 % 0.00 in /  0 mm 0 W/m2
20:00 55.8 °F /  13.2 °C 43.3 °F /  6.3 °C 30.12 in /  1019.9 hPa SW 6.0 mph /  9.7 km/h 10.0 mph /  16.1 km/h 63 % 0.00 in /  0 mm 0 W/m2
20:05 55.8 °F /  13.2 °C 43.3 °F /  6.3 °C 30.12 in /  1019.9 hPa SW 5.0 mph /  8 km/h 10.0 mph /  16.1 km/h 63 % 0.00 in /  0 mm 0 W/m2
20:10 55.6 °F /  13.1 °C 43.6 °F /  6.4 °C 30.12 in /  1019.9 hPa SSW 6.0 mph /  9.7 km/h 10.0 mph /  16.1 km/h 64 % 0.00 in /  0 mm 0 W/m2
20:15 55.4 °F /  13 °C 43.8 °F /  6.6 °C 30.12 in /  1019.9 hPa SSW 5.0 mph /  8 km/h 10.0 mph /  16.1 km/h 65 % 0.00 in /  0 mm 0 W/m2
20:20 55.2 °F /  12.9 °C 43.7 °F /  6.5 °C 30.12 in /  1019.9 hPa SW 5.0 mph /  8 km/h 11.0 mph /  17.7 km/h 65 % 0.00 in /  0 mm 0 W/m2
20:25 55.2 °F /  12.9 °C 43.7 °F /  6.5 °C 30.12 in /  1019.9 hPa SW 5.0 mph /  8 km/h 11.0 mph /  17.7 km/h 65 % 0.00 in /  0 mm 0 W/m2
20:30 55.0 °F /  12.8 °C 43.5 °F /  6.4 °C 30.13 in /  1020.2 hPa SSW 5.0 mph /  8 km/h 9.0 mph /  14.5 km/h 65 % 0.00 in /  0 mm 0 W/m2
20:35 55.0 °F /  12.8 °C 43.5 °F /  6.4 °C 30.13 in /  1020.2 hPa SSW 5.0 mph /  8 km/h 9.0 mph /  14.5 km/h 65 % 0.00 in /  0 mm 0 W/m2
20:40 55.0 °F /  12.8 °C 43.5 °F /  6.4 °C 30.13 in /  1020.2 hPa SW 5.0 mph /  8 km/h 9.0 mph /  14.5 km/h 65 % 0.00 in /  0 mm 0 W/m2
20:45 54.9 °F /  12.7 °C 43.7 °F /  6.5 °C 30.13 in /  1020.2 hPa SW 4.0 mph /  6.4 km/h 8.0 mph /  12.9 km/h 66 % 0.00 in /  0 mm 0 W/m2
20:50 54.9 °F /  12.7 °C 43.7 °F /  6.5 °C 30.13 in /  1020.2 hPa SW 4.0 mph /  6.4 km/h 9.0 mph /  14.5 km/h 66 % 0.00 in /  0 mm 0 W/m2
20:55 54.7 °F /  12.6 °C 43.5 °F /  6.4 °C 30.13 in /  1020.2 hPa SW 5.0 mph /  8 km/h 9.0 mph /  14.5 km/h 66 % 0.00 in /  0 mm 0 W/m2
21:00 54.5 °F /  12.5 °C 43.4 °F /  6.3 °C 30.13 in /  1020.2 hPa SSW 5.0 mph /  8 km/h 9.0 mph /  14.5 km/h 66 % 0.00 in /  0 mm 0 W/m2
21:05 54.3 °F /  12.4 °C 43.6 °F /  6.4 °C 30.13 in /  1020.2 hPa SSW 5.0 mph /  8 km/h 9.0 mph /  14.5 km/h 67 % 0.00 in /  0 mm 0 W/m2
21:10 54.1 °F /  12.3 °C 43.4 °F /  6.3 °C 30.13 in /  1020.2 hPa SW 5.0 mph /  8 km/h 11.0 mph /  17.7 km/h 67 % 0.00 in /  0 mm 0 W/m2
21:15 54.1 °F /  12.3 °C 43.4 °F /  6.3 °C 30.13 in /  1020.2 hPa SW 6.0 mph /  9.7 km/h 11.0 mph /  17.7 km/h 67 % 0.00 in /  0 mm 0 W/m2
21:20 54.1 °F /  12.3 °C 43.4 °F /  6.3 °C 30.13 in /  1020.2 hPa SW 4.0 mph /  6.4 km/h 10.0 mph /  16.1 km/h 67 % 0.00 in /  0 mm 0 W/m2
21:25 54.0 °F /  12.2 °C 43.6 °F /  6.4 °C 30.13 in /  1020.2 hPa SW 2.0 mph /  3.2 km/h 6.0 mph /  9.7 km/h 68 % 0.00 in /  0 mm 0 W/m2
21:30 54.0 °F /  12.2 °C 43.6 °F /  6.4 °C 30.13 in /  1020.2 hPa SW 2.0 mph /  3.2 km/h 7.0 mph /  11.3 km/h 68 % 0.00 in /  0 mm 0 W/m2
21:35 53.8 °F /  12.1 °C 43.5 °F /  6.4 °C 30.13 in /  1020.2 hPa SSW 4.0 mph /  6.4 km/h 10.0 mph /  16.1 km/h 68 % 0.00 in /  0 mm 0 W/m2
21:40 53.8 °F /  12.1 °C 43.8 °F /  6.6 °C 30.13 in /  1020.2 hPa SSW 6.0 mph /  9.7 km/h 11.0 mph /  17.7 km/h 69 % 0.00 in /  0 mm 0 W/m2
21:45 53.8 °F /  12.1 °C 43.8 °F /  6.6 °C 30.13 in /  1020.2 hPa SW 7.0 mph /  11.3 km/h 13.0 mph /  20.9 km/h 69 % 0.00 in /  0 mm 0 W/m2
21:50 53.8 °F /  12.1 °C 43.8 °F /  6.6 °C 30.13 in /  1020.2 hPa SW 7.0 mph /  11.3 km/h 13.0 mph /  20.9 km/h 69 % 0.00 in /  0 mm 0 W/m2
21:55 53.6 °F /  12 °C 43.7 °F /  6.5 °C 30.12 in /  1019.9 hPa SSW 7.0 mph /  11.3 km/h 12.0 mph /  19.3 km/h 69 % 0.00 in /  0 mm 0 W/m2
22:00 53.4 °F /  11.9 °C 43.9 °F /  6.6 °C 30.12 in /  1019.9 hPa SSW 7.0 mph /  11.3 km/h 12.0 mph /  19.3 km/h 70 % 0.00 in /  0 mm 0 W/m2
22:05 53.4 °F /  11.9 °C 43.9 °F /  6.6 °C 30.12 in /  1019.9 hPa SSW 7.0 mph /  11.3 km/h 12.0 mph /  19.3 km/h 70 % 0.00 in /  0 mm 0 W/m2
22:10 53.2 °F /  11.8 °C 44.1 °F /  6.7 °C 30.12 in /  1019.9 hPa SSW 8.0 mph /  12.9 km/h 12.0 mph /  19.3 km/h 71 % 0.00 in /  0 mm 0 W/m2
22:16 53.2 °F /  11.8 °C 44.1 °F /  6.7 °C 30.12 in /  1019.9 hPa SSW 7.0 mph /  11.3 km/h 12.0 mph /  19.3 km/h 71 % 0.00 in /  0 mm 0 W/m2
22:21 53.2 °F /  11.8 °C 44.1 °F /  6.7 °C 30.12 in /  1019.9 hPa SSW 7.0 mph /  11.3 km/h 12.0 mph /  19.3 km/h 71 % 0.00 in /  0 mm 0 W/m2
22:26 53.2 °F /  11.8 °C 44.4 °F /  6.9 °C 30.13 in /  1020.2 hPa SW 8.0 mph /  12.9 km/h 14.0 mph /  22.5 km/h 72 % 0.00 in /  0 mm 0 W/m2
22:31 53.2 °F /  11.8 °C 44.4 °F /  6.9 °C 30.13 in /  1020.2 hPa SW 7.0 mph /  11.3 km/h 14.0 mph /  22.5 km/h 72 % 0.00 in /  0 mm 0 W/m2
22:36 53.2 °F /  11.8 °C 44.4 °F /  6.9 °C 30.13 in /  1020.2 hPa SSW 7.0 mph /  11.3 km/h 12.0 mph /  19.3 km/h 72 % 0.00 in /  0 mm 0 W/m2
22:41 53.1 °F /  11.7 °C 44.3 °F /  6.8 °C 30.12 in /  1019.9 hPa SSW 7.0 mph /  11.3 km/h 12.0 mph /  19.3 km/h 72 % 0.00 in /  0 mm 0 W/m2
22:46 53.1 °F /  11.7 °C 44.6 °F /  7 °C 30.13 in /  1020.2 hPa SW 6.0 mph /  9.7 km/h 11.0 mph /  17.7 km/h 73 % 0.00 in /  0 mm 0 W/m2
22:51 53.1 °F /  11.7 °C 44.6 °F /  7 °C 30.13 in /  1020.2 hPa SW 6.0 mph /  9.7 km/h 10.0 mph /  16.1 km/h 73 % 0.00 in /  0 mm 0 W/m2
22:56 52.9 °F /  11.6 °C 44.5 °F /  6.9 °C 30.13 in /  1020.2 hPa SSW 6.0 mph /  9.7 km/h 10.0 mph /  16.1 km/h 73 % 0.00 in /  0 mm 0 W/m2
23:01 52.9 °F /  11.6 °C 44.8 °F /  7.1 °C 30.13 in /  1020.2 hPa SSW 6.0 mph /  9.7 km/h 10.0 mph /  16.1 km/h 74 % 0.00 in /  0 mm 0 W/m2
23:06 52.9 °F /  11.6 °C 44.8 °F /  7.1 °C 30.13 in /  1020.2 hPa SW 6.0 mph /  9.7 km/h 11.0 mph /  17.7 km/h 74 % 0.00 in /  0 mm 0 W/m2
23:11 52.9 °F /  11.6 °C 44.8 °F /  7.1 °C 30.13 in /  1020.2 hPa SW 6.0 mph /  9.7 km/h 11.0 mph /  17.7 km/h 74 % 0.00 in /  0 mm 0 W/m2
23:16 52.9 °F /  11.6 °C 45.2 °F /  7.3 °C 30.13 in /  1020.2 hPa SW 5.0 mph /  8 km/h 8.0 mph /  12.9 km/h 75 % 0.00 in /  0 mm 0 W/m2
23:21 52.9 °F /  11.6 °C 45.2 °F /  7.3 °C 30.13 in /  1020.2 hPa SW 5.0 mph /  8 km/h 8.0 mph /  12.9 km/h 75 % 0.00 in /  0 mm 0 W/m2
23:26 52.7 °F /  11.5 °C 45.3 °F /  7.4 °C 30.13 in /  1020.2 hPa SW 5.0 mph /  8 km/h 8.0 mph /  12.9 km/h 76 % 0.00 in /  0 mm 0 W/m2
23:31 52.5 °F /  11.4 °C 45.2 °F /  7.3 °C 30.13 in /  1020.2 hPa SSW 5.0 mph /  8 km/h 8.0 mph /  12.9 km/h 76 % 0.00 in /  0 mm 0 W/m2
23:36 52.5 °F /  11.4 °C 45.2 °F /  7.3 °C 30.13 in /  1020.2 hPa SW 4.0 mph /  6.4 km/h 8.0 mph /  12.9 km/h 76 % 0.00 in /  0 mm 0 W/m2
23:41 52.5 °F /  11.4 °C 45.2 °F /  7.3 °C 30.14 in /  1020.5 hPa SW 3.0 mph /  4.8 km/h 6.0 mph /  9.7 km/h 76 % 0.00 in /  0 mm 0 W/m2
23:46 52.5 °F /  11.4 °C 45.2 °F /  7.3 °C 30.14 in /  1020.5 hPa SSW 1.0 mph /  1.6 km/h 6.0 mph /  9.7 km/h 76 % 0.00 in /  0 mm 0 W/m2
23:51 52.5 °F /  11.4 °C 45.5 °F /  7.5 °C 30.14 in /  1020.5 hPa West 1.0 mph /  1.6 km/h 4.0 mph /  6.4 km/h 77 % 0.00 in /  0 mm 0 W/m2
23:56 52.5 °F /  11.4 °C 45.5 °F /  7.5 °C 30.14 in /  1020.5 hPa West 1.0 mph /  1.6 km/h 5.0 mph /  8 km/h 77 % 0.00 in /  0 mm 0 W/m2
Delerius-Weather
Compliments of Weather Underground - 2.25 mb

Data updates at regular intervals.